SKSM

Details ICAO SKSM (SMR)
Name SIMON BOLIVAR
Region Colombia
Timezone Unknown (UTC+0.0)
Plans Departing 39
Arriving 47
Stats Elevation 22 ft / 7 m (AMSL)
Location 11.119649° -74.230646°
Runways 1
Magnetic Variation 8.155° W
Sunrise 2018-05-21 10:34:44 UTC / 2018-05-21 10:34:44 Local
Sunset 2018-05-21 23:15:11 UTC / 2018-05-21 23:15:11 Local
Advertisement - Login to hide

Runways

ID Width Length Bearing (true) Bearing (mag) Surface Threshold Offset Overrun Length
01 98 ft / 30 m 5,618 ft / 1,712 m 358.67° 6.82° Asphalt 0 ft / 0 m 0 ft / 0 m
19 98 ft / 30 m 5,618 ft / 1,712 m 178.67° 186.82° Asphalt 0 ft / 0 m 0 ft / 0 m

Map

Weather


0- 5 10 15 20 25 30 35+ Temperature / ° C

Clouds and Precipitation
Forecast for 2018-05-22 00:00 UTC. Updated 5 hours ago

Ground ~20,000 ft ~40,000 ft Winds

METAR

SKSM 220300Z 14004KT 9999 FEW020 BKN070 28/24 A2992

TAF

Not found

Frequencies

Tower 118.70 MHz TWR
Approach 119.10 MHz BARRANQUILLA APP
Warning: Do not use this data for real-world aviation or navigation. No guarantee of current accuracy is given.